Time;durP1;ratioP1;P1;durP2;ratioP2;P2;SDS_P1;SDS_P2;PMS_P1;PMS_P2;Temp;Humidity;BMP_temperature;BMP_pressure;BME280_temperature;BME280_humidity;BME280_pressure;Samples;Min_cycle;Max_cycle;Signal;HPM_P1;HPM_P2
2023/05/16 00:02:08;;;;;;;3.23;2.93;;;;;;;13.28;84.39;95219.16;4969481;28;20228;-87
2023/05/16 00:04:35;;;;;;;3.70;3.40;;;;;;;13.29;84.24;95213.78;4970705;28;20277;-87
2023/05/16 00:07:02;;;;;;;2.93;2.73;;;;;;;13.25;84.20;95212.63;4970097;28;20201;-87
2023/05/16 00:09:28;;;;;;;5.10;3.40;;;;;;;13.23;84.15;95217.19;4970019;28;20192;-87
2023/05/16 00:11:55;;;;;;;3.47;3.20;;;;;;;13.24;84.20;95213.63;4969449;28;20575;-87
2023/05/16 00:14:21;;;;;;;3.33;3.08;;;;;;;13.28;84.19;95213.97;4970412;28;20212;-87
2023/05/16 00:16:52;;;;;;;3.60;3.30;;;;;;;13.23;84.39;95212.03;4964547;28;20236;-87
2023/05/16 00:19:19;;;;;;;3.37;3.17;;;;;;;13.18;84.33;95208.44;4953959;28;20192;-87
2023/05/16 00:21:45;;;;;;;3.60;3.30;;;;;;;13.15;84.72;95209.63;4969846;28;20299;-86
2023/05/16 00:24:11;;;;;;;3.30;3.03;;;;;;;13.17;84.62;95201.69;4969992;28;20210;-87
2023/05/16 00:26:41;;;;;;;3.60;3.30;;;;;;;13.19;84.67;95207.44;4969875;28;20200;-86
2023/05/16 00:29:08;;;;;;;3.90;3.60;;;;;;;13.23;84.63;95206.06;4969792;28;20247;-87
2023/05/16 00:31:34;;;;;;;3.67;3.37;;;;;;;13.27;84.44;95200.28;4969730;28;20740;-87
2023/05/16 00:34:02;;;;;;;3.20;3.00;;;;;;;13.27;84.13;95197.69;4969493;28;20212;-87
2023/05/16 00:36:30;;;;;;;4.17;3.50;;;;;;;13.23;84.49;95199.09;4970086;28;20216;-87
2023/05/16 00:38:56;;;;;;;3.40;3.20;;;;;;;13.15;84.51;95188.97;4969512;28;20224;-87
2023/05/16 00:41:24;;;;;;;3.67;3.37;;;;;;;13.18;84.48;95193.72;4969882;28;20224;-87
2023/05/16 00:43:53;;;;;;;3.50;3.17;;;;;;;13.19;84.87;95194.53;4969632;28;20200;-87
2023/05/16 00:46:19;;;;;;;3.90;3.60;;;;;;;13.07;84.92;95191.75;4970129;28;20231;-87
2023/05/16 00:48:46;;;;;;;4.00;3.43;;;;;;;13.02;85.13;95197.50;4969608;28;20200;-86
2023/05/16 00:51:14;;;;;;;4.83;3.40;;;;;;;13.08;85.07;95198.50;4969363;28;20227;-89
2023/05/16 00:53:43;;;;;;;4.47;3.40;;;;;;;13.11;84.78;95190.31;4969851;28;20208;-89
2023/05/16 00:56:10;;;;;;;3.70;3.40;;;;;;;13.14;84.97;95193.31;4969971;28;20227;-87
2023/05/16 00:58:37;;;;;;;3.57;3.27;;;;;;;13.09;84.90;95195.69;4968380;28;20235;-87
2023/05/16 01:01:04;;;;;;;3.87;3.30;;;;;;;13.07;84.87;95200.28;4971518;28;20204;-87
2023/05/16 01:03:34;;;;;;;3.97;3.67;;;;;;;13.05;85.11;95196.31;4969309;28;20204;-87
2023/05/16 01:06:03;;;;;;;4.33;3.93;;;;;;;12.99;85.49;95200.50;4969611;28;20203;-89
2023/05/16 01:08:31;;;;;;;3.83;3.53;;;;;;;13.00;85.50;95201.28;4969715;28;20204;-90
2023/05/16 01:11:07;;;;;;;3.80;3.50;;;;;;;13.05;85.31;95197.09;4968601;28;20558;-90
2023/05/16 01:13:48;;;;;;;4.07;3.70;;;;;;;13.06;85.18;95197.91;4969471;28;20223;-89
2023/05/16 01:16:20;;;;;;;4.80;3.70;;;;;;;13.05;85.82;95194.53;4968326;28;20228;-90
2023/05/16 01:18:56;;;;;;;5.33;3.40;;;;;;;13.09;85.26;95194.88;4950287;28;20208;-87
2023/05/16 01:21:39;;;;;;;3.80;3.50;;;;;;;13.13;85.53;95188.34;4960728;28;20223;-89
2023/05/16 01:24:14;;;;;;;3.83;3.43;;;;;;;13.15;85.47;95188.97;4969275;28;20306;-89
2023/05/16 01:26:43;;;;;;;4.00;3.30;;;;;;;13.17;85.26;95191.34;4968881;28;20219;-87
2023/05/16 01:29:10;;;;;;;3.63;3.33;;;;;;;13.17;84.84;95186.97;4968782;28;20691;-87
2023/05/16 01:31:36;;;;;;;4.07;3.53;;;;;;;13.17;85.16;95184.38;4963095;28;20221;-90
2023/05/16 01:34:04;;;;;;;4.30;4.00;;;;;;;13.12;84.99;95179.78;4951074;28;20219;-91
2023/05/16 01:36:35;;;;;;;3.97;3.57;;;;;;;13.16;85.12;95184.59;4968971;28;20216;-89
2023/05/16 01:39:09;;;;;;;3.93;3.63;;;;;;;13.15;85.38;95181.19;4969248;28;20204;-89
2023/05/16 01:41:47;;;;;;;3.83;3.53;;;;;;;13.17;85.27;95181.00;4968737;28;20220;-89
2023/05/16 01:44:18;;;;;;;4.10;3.43;;;;;;;13.16;85.22;95179.41;4968911;28;20870;-90
2023/05/16 01:46:47;;;;;;;3.93;3.63;;;;;;;13.10;85.43;95179.19;4969357;28;20208;-87
2023/05/16 01:49:20;;;;;;;4.33;4.03;;;;;;;13.01;85.79;95179.63;4968777;28;20666;-89
2023/05/16 01:51:51;;;;;;;3.70;3.40;;;;;;;13.02;85.91;95168.28;4968519;28;20721;-87
2023/05/16 01:54:19;;;;;;;4.13;3.83;;;;;;;13.05;85.67;95165.31;4969092;28;20216;-87
2023/05/16 01:56:51;;;;;;;4.13;3.83;;;;;;;13.09;85.43;95163.88;4968685;28;20247;-87
2023/05/16 01:59:19;;;;;;;4.07;3.67;;;;;;;13.13;85.16;95172.81;4968835;28;20251;-87
2023/05/16 02:01:45;;;;;;;4.07;3.77;;;;;;;13.07;85.38;95168.47;4970032;28;20564;-87
2023/05/16 02:04:14;;;;;;;4.43;3.97;;;;;;;13.05;85.30;95167.88;4968739;28;20197;-89
2023/05/16 02:06:40;;;;;;;4.30;3.90;;;;;;;13.01;85.42;95167.50;4968893;28;20251;-91
2023/05/16 02:09:07;;;;;;;4.27;3.90;;;;;;;13.02;85.78;95174.25;4969236;28;20208;-89
2023/05/16 02:11:33;;;;;;;4.40;4.10;;;;;;;12.99;85.81;95168.69;4972055;28;20309;-89
2023/05/16 02:14:01;;;;;;;4.07;3.77;;;;;;;12.96;86.13;95179.41;4972296;28;20196;-89
2023/05/16 02:16:29;;;;;;;4.33;3.93;;;;;;;12.95;86.15;95159.72;4969990;28;20236;-89
2023/05/16 02:18:56;;;;;;;4.30;4.00;;;;;;;12.89;86.60;95176.06;4959159;28;20212;-89
2023/05/16 02:21:22;;;;;;;4.30;3.80;;;;;;;12.90;86.66;95175.03;4972248;28;20219;-89
2023/05/16 02:23:49;;;;;;;5.30;4.10;;;;;;;12.89;86.20;95176.06;4972097;28;20270;-89
2023/05/16 02:26:17;;;;;;;4.83;4.00;;;;;;;12.93;86.28;95180.59;4972203;28;20724;-90
2023/05/16 02:28:43;;;;;;;4.77;4.37;;;;;;;12.94;86.45;95182.19;4972168;28;20702;-90
2023/05/16 02:31:11;;;;;;;4.07;3.77;;;;;;;12.92;86.16;95183.38;4971540;28;20259;-90
2023/05/16 02:33:38;;;;;;;4.73;4.07;;;;;;;12.96;85.86;95182.00;4971949;28;20629;-90
2023/05/16 02:36:04;;;;;;;4.47;4.07;;;;;;;12.96;85.81;95182.00;4976118;28;20216;-87
2023/05/16 02:38:31;;;;;;;4.57;4.17;;;;;;;12.98;85.62;95180.81;4971651;28;20613;-88
2023/05/16 02:40:57;;;;;;;4.60;4.20;;;;;;;12.98;85.70;95182.59;4971433;28;20211;-87
2023/05/16 02:43:24;;;;;;;4.80;4.40;;;;;;;12.98;85.53;95183.38;4972316;28;20204;-87
2023/05/16 02:45:51;;;;;;;4.67;4.27;;;;;;;12.87;85.55;95176.25;4971309;28;20736;-87
2023/05/16 02:48:18;;;;;;;5.00;4.60;;;;;;;12.83;85.81;95176.84;4971843;28;20208;-87
2023/05/16 02:50:45;;;;;;;4.87;4.47;;;;;;;12.72;86.12;95179.03;4971660;28;20200;-89
2023/05/16 02:53:12;;;;;;;6.03;4.50;;;;;;;12.79;85.95;95186.78;4971500;28;20224;-89
2023/05/16 02:55:39;;;;;;;5.00;4.50;;;;;;;12.83;85.90;95182.81;4971950;28;20204;-91
2023/05/16 02:58:05;;;;;;;7.00;4.63;;;;;;;12.87;85.47;95178.03;4971637;28;20243;-87
2023/05/16 03:00:31;;;;;;;5.90;4.50;;;;;;;12.91;85.12;95174.84;4975198;28;20568;-89
2023/05/16 03:02:58;;;;;;;4.80;4.13;;;;;;;12.91;85.42;95179.22;4988292;28;20223;-88
2023/05/16 03:05:25;;;;;;;5.03;4.10;;;;;;;12.94;85.29;95171.06;4990724;28;20199;-89
2023/05/16 03:07:52;;;;;;;4.93;4.53;;;;;;;12.95;85.32;95175.25;4984950;28;20188;-89
2023/05/16 03:10:18;;;;;;;6.07;4.60;;;;;;;12.93;85.26;95177.22;4971157;28;20203;-90
2023/05/16 03:12:45;;;;;;;5.60;4.70;;;;;;;12.90;85.41;95178.41;4971453;28;20275;-89
2023/05/16 03:15:11;;;;;;;5.00;4.60;;;;;;;12.90;85.33;95172.47;4970821;28;20748;-89
2023/05/16 03:17:37;;;;;;;4.90;4.50;;;;;;;12.85;85.63;95170.50;4971123;28;20228;-89
2023/05/16 03:20:07;;;;;;;5.07;4.67;;;;;;;12.85;85.38;95177.44;4970743;28;20208;-89
2023/05/16 03:22:35;;;;;;;4.57;4.17;;;;;;;12.72;86.29;95173.88;4970440;28;20244;-90
2023/05/16 03:25:01;;;;;;;4.73;4.33;;;;;;;12.80;85.86;95172.88;4971167;28;20207;-89
2023/05/16 03:27:28;;;;;;;5.27;4.57;;;;;;;12.82;85.97;95176.06;4970784;28;20208;-89
2023/05/16 03:29:54;;;;;;;4.90;4.40;;;;;;;12.83;85.61;95174.28;4970570;28;20577;-89
2023/05/16 03:32:21;;;;;;;5.23;4.43;;;;;;;12.82;85.34;95170.88;4971017;28;20286;-90
2023/05/16 03:34:47;;;;;;;5.40;4.90;;;;;;;12.75;85.95;95172.66;4970864;28;20219;-89
2023/05/16 03:37:14;;;;;;;5.73;5.23;;;;;;;12.74;86.12;95178.81;4971028;28;20247;-91
2023/05/16 03:39:42;;;;;;;5.13;4.60;;;;;;;12.79;85.93;95174.66;4951803;28;20295;-89
2023/05/16 03:42:09;;;;;;;5.17;4.67;;;;;;;12.81;85.80;95174.47;4953661;28;20670;-90
2023/05/16 03:44:35;;;;;;;6.87;5.20;;;;;;;12.83;85.71;95171.69;4970673;28;20211;-90
2023/05/16 03:47:01;;;;;;;5.50;5.00;;;;;;;12.85;85.53;95172.28;4970530;28;20711;-89
2023/05/16 03:49:28;;;;;;;5.20;4.63;;;;;;;12.87;85.47;95172.88;4970150;28;20207;-89
2023/05/16 03:51:54;;;;;;;5.13;4.63;;;;;;;12.89;85.23;95176.84;4970663;28;20331;-90
2023/05/16 03:54:23;;;;;;;5.00;4.60;;;;;;;12.77;85.89;95173.28;4970028;28;20205;-87
2023/05/16 03:56:51;;;;;;;5.73;5.13;;;;;;;12.77;85.99;95168.09;4970550;28;20220;-87
2023/05/16 03:59:18;;;;;;;5.80;4.87;;;;;;;12.73;86.55;95167.69;4970231;28;20211;-87
2023/05/16 04:01:44;;;;;;;7.00;4.80;;;;;;;12.77;85.85;95168.91;4986615;28;20266;-90
2023/05/16 04:04:11;;;;;;;5.23;4.83;;;;;;;12.75;85.83;95176.06;4975491;28;20211;-91
2023/05/16 04:06:37;;;;;;;5.73;5.23;;;;;;;12.76;85.81;95169.88;4970190;28;20200;-91
2023/05/16 04:09:05;;;;;;;5.13;4.73;;;;;;;12.77;85.86;95170.69;4970100;28;20697;-90
2023/05/16 04:11:32;;;;;;;5.53;5.03;;;;;;;12.77;86.13;95175.84;4970094;28;20220;-89
2023/05/16 04:14:00;;;;;;;5.90;5.40;;;;;;;12.69;87.25;95171.69;4970020;28;21037;-88
2023/05/16 04:16:27;;;;;;;5.70;5.30;;;;;;;12.63;88.37;95172.50;4967849;28;20260;-87
2023/05/16 04:18:55;;;;;;;5.73;5.23;;;;;;;12.55;89.34;95167.50;4961733;28;20231;-87
2023/05/16 04:21:21;;;;;;;6.10;5.60;;;;;;;12.53;89.28;95168.69;4961926;28;20227;-89
2023/05/16 04:23:47;;;;;;;6.20;5.60;;;;;;;12.45;89.35;95175.66;4972122;28;20211;-88
2023/05/16 04:26:14;;;;;;;6.17;5.57;;;;;;;12.55;88.44;95167.50;4970108;28;20570;-87
2023/05/16 04:28:41;;;;;;;6.70;6.10;;;;;;;12.54;88.42;95178.81;4969687;28;20276;-89
2023/05/16 04:31:09;;;;;;;6.80;6.20;;;;;;;12.61;87.33;95184.00;4966164;28;20296;-87
2023/05/16 04:33:36;;;;;;;6.90;6.17;;;;;;;12.63;86.37;95176.84;4966786;28;20507;-87
2023/05/16 04:36:04;;;;;;;7.40;6.63;;;;;;;12.64;86.19;95174.09;4968533;28;20200;-87
2023/05/16 04:38:31;;;;;;;7.10;6.50;;;;;;;12.67;85.44;95185.81;4965304;28;20585;-86
2023/05/16 04:40:58;;;;;;;6.87;6.27;;;;;;;12.71;85.27;95185.19;4963249;28;20232;-89
2023/05/16 04:43:24;;;;;;;8.50;6.97;;;;;;;12.74;84.47;95184.00;4967331;28;20360;-89
2023/05/16 04:45:52;;;;;;;7.23;6.63;;;;;;;12.76;84.76;95184.59;4970568;28;20677;-88
2023/05/16 04:48:21;;;;;;;7.47;6.77;;;;;;;12.83;84.48;95187.19;4969883;28;20200;-89
2023/05/16 04:50:48;;;;;;;6.37;5.77;;;;;;;12.83;84.21;95171.69;4969291;28;20201;-88
2023/05/16 04:53:16;;;;;;;7.03;5.87;;;;;;;12.88;84.41;95175.25;4969561;28;20224;-88
2023/05/16 04:55:43;;;;;;;6.63;5.90;;;;;;;12.94;84.29;95178.81;4966445;28;20192;-88
2023/05/16 04:58:09;;;;;;;6.43;5.83;;;;;;;12.97;84.21;95181.00;4964225;28;20220;-88
2023/05/16 05:00:39;;;;;;;7.90;6.47;;;;;;;13.00;83.67;95185.78;4970357;28;20199;-87
2023/05/16 05:03:05;;;;;;;6.43;5.80;;;;;;;12.93;84.74;95175.44;4976969;28;20219;-89
2023/05/16 05:05:43;;;;;;;6.30;5.70;;;;;;;12.97;84.59;95176.63;4972812;28;20199;-89
2023/05/16 05:08:20;;;;;;;6.30;5.70;;;;;;;13.01;84.52;95180.41;4961062;28;20204;-92
2023/05/16 05:10:55;;;;;;;6.43;5.70;;;;;;;13.03;84.58;95169.88;4969342;28;20235;-91
2023/05/16 05:13:26;;;;;;;6.50;5.90;;;;;;;12.95;85.48;95183.78;4978442;28;20215;-91
2023/05/16 05:16:06;;;;;;;;;;;;;;;;;;;;;
2023/05/16 05:18:36;;;;;;;6.83;6.13;;;;;;;13.02;85.26;95181.19;4973326;28;20230;-91
2023/05/16 05:21:04;;;;;;;6.80;6.20;;;;;;;13.05;84.49;95181.59;4968396;28;20461;-90
2023/05/16 05:23:31;;;;;;;7.27;6.57;;;;;;;13.06;85.07;95187.56;4968757;28;20204;-90
2023/05/16 05:25:58;;;;;;;13.47;12.07;;;;;;;13.05;83.90;95183.38;4969825;28;20238;-91
2023/05/16 05:28:24;;;;;;;14.10;11.80;;;;;;;13.08;83.86;95196.69;4969604;28;20288;-91
2023/05/16 05:30:56;;;;;;;13.97;12.57;;;;;;;13.06;84.83;95188.34;4967790;28;20211;-90
2023/05/16 05:33:31;;;;;;;9.23;7.13;;;;;;;13.07;84.21;95189.16;4968564;28;20298;-90
2023/05/16 05:38:40;;;;;;;7.87;7.17;;;;;;;12.99;84.10;95184.97;4967233;28;20597;-88
2023/05/16 05:41:07;;;;;;;7.90;7.20;;;;;;;12.95;84.23;95183.78;4968238;28;20628;-92
2023/05/16 05:43:41;;;;;;;8.57;7.63;;;;;;;12.89;84.50;95182.03;4968579;28;20201;-90
2023/05/16 05:46:13;;;;;;;7.73;6.93;;;;;;;12.91;84.65;95180.00;4972506;28;20211;-91
2023/05/16 05:48:39;;;;;;;8.67;7.70;;;;;;;12.90;85.28;95177.63;4973124;28;20302;-91
2023/05/16 05:51:06;;;;;;;19.93;16.90;;;;;;;12.91;85.20;95184.38;4972623;28;20288;-91
2023/05/16 05:53:37;;;;;;;12.43;11.23;;;;;;;12.92;84.80;95173.84;4972153;28;20273;-91
2023/05/16 05:56:07;;;;;;;9.07;8.20;;;;;;;12.87;84.49;95171.09;4972258;28;20263;-90
2023/05/16 06:09:47;;;;;;;10.03;8.33;;;;;;;12.88;85.93;95180.44;4971929;26;20226;-90
2023/05/16 06:12:20;;;;;;;9.53;8.57;;;;;;;12.82;86.47;95173.47;4988493;28;20237;-90
2023/05/16 06:14:47;;;;;;;11.70;8.67;;;;;;;12.78;86.42;95165.31;4988288;28;20200;-90
2023/05/16 06:17:13;;;;;;;9.10;8.20;;;;;;;12.88;85.84;95164.94;4991294;28;20223;-90
2023/05/16 06:19:40;;;;;;;9.20;8.23;;;;;;;12.90;85.61;95168.09;4991115;28;20212;-90
2023/05/16 06:22:09;;;;;;;11.43;8.73;;;;;;;12.88;86.21;95170.09;4990564;28;20247;-91
2023/05/16 06:24:56;;;;;;;10.13;9.10;;;;;;;12.86;86.57;95169.50;4990939;28;20318;-90
2023/05/16 06:27:24;;;;;;;9.67;8.77;;;;;;;12.86;86.53;95177.25;4985056;28;20575;-90
2023/05/16 06:29:50;;;;;;;9.43;8.53;;;;;;;12.94;85.91;95181.41;4990639;28;20199;-90
2023/05/16 06:32:17;;;;;;;10.13;8.33;;;;;;;13.00;85.39;95178.03;4986786;28;20227;-90
2023/05/16 06:34:52;;;;;;;9.97;8.47;;;;;;;13.09;85.39;95174.22;4990968;28;20204;-90
2023/05/16 06:37:55;;;;;;;9.53;8.63;;;;;;;13.11;86.65;95175.59;4985498;28;20222;-90
2023/05/16 06:40:21;;;;;;;9.07;8.17;;;;;;;13.20;86.60;95172.84;4990569;28;20209;-90
2023/05/16 06:43:23;;;;;;;11.53;8.67;;;;;;;13.27;86.18;95179.59;4990323;28;20712;-90
2023/05/16 06:45:50;;;;;;;11.17;9.13;;;;;;;13.37;86.94;95179.16;4977682;28;20195;-90
2023/05/16 06:48:35;;;;;;;10.07;9.07;;;;;;;13.48;84.71;95176.72;4990145;28;20199;-90
2023/05/16 06:51:22;;;;;;;10.47;8.80;;;;;;;13.55;83.18;95176.72;4990847;28;20199;-89
2023/05/16 06:53:52;;;;;;;8.83;8.03;;;;;;;13.48;83.70;95183.69;4989771;28;20310;-88
2023/05/16 06:56:18;;;;;;;10.10;9.20;;;;;;;13.26;84.89;95182.38;4989164;28;20196;-89
2023/05/16 06:59:23;;;;;;;;;;;;;;;;;;;;;
2023/05/16 07:05:03;;;;;;;10.63;9.63;;;;;;;13.43;85.43;95181.75;4989160;28;20323;-87
2023/05/16 07:07:29;;;;;;;10.20;9.13;;;;;;;13.62;84.30;95179.28;4990365;28;20227;-88
2023/05/16 07:09:56;;;;;;;10.10;9.20;;;;;;;13.61;84.28;95175.91;4990554;28;20299;-87
2023/05/16 07:12:22;;;;;;;41.60;35.83;;;;;;;13.66;84.20;95173.47;4990616;28;20925;-88
2023/05/16 07:14:50;;;;;;;18.02;16.23;;;;;;;13.72;83.08;95175.25;4990908;28;20204;-87
2023/05/16 07:17:19;;;;;;;19.97;17.90;;;;;;;13.73;82.44;95173.47;4990285;28;20305;-88
2023/05/16 07:19:46;;;;;;;11.93;10.83;;;;;;;13.71;83.53;95178.84;4990169;28;20661;-88
2023/05/16 07:22:12;;;;;;;10.13;9.13;;;;;;;13.71;82.96;95180.63;4990037;28;20234;-87
2023/05/16 07:24:39;;;;;;;10.70;9.23;;;;;;;13.76;82.88;95183.41;4991129;28;20601;-88
2023/05/16 07:27:07;;;;;;;11.40;10.17;;;;;;;13.69;83.32;95180.03;4990700;28;20241;-88
2023/05/16 07:29:34;;;;;;;9.67;8.83;;;;;;;13.71;82.71;95173.66;4990967;28;20218;-88
2023/05/16 07:32:04;;;;;;;10.20;9.20;;;;;;;13.73;82.40;95182.03;4993716;28;20223;-91
2023/05/16 07:34:31;;;;;;;9.53;8.70;;;;;;;13.69;82.13;95186.00;5010356;28;20631;-90
2023/05/16 07:36:58;;;;;;;9.77;8.87;;;;;;;13.69;82.32;95183.41;5009753;28;20206;-90
2023/05/16 07:39:24;;;;;;;11.03;9.33;;;;;;;13.73;82.57;95183.81;5009712;28;20230;-87
2023/05/16 07:41:51;;;;;;;9.37;8.47;;;;;;;13.72;82.96;95184.81;5009403;28;20223;-88
2023/05/16 07:44:27;;;;;;;;;;;;;;;;;;;;;
2023/05/16 07:46:54;;;;;;;10.03;9.13;;;;;;;13.71;83.39;95184.00;4988343;28;20203;-88
2023/05/16 07:49:22;;;;;;;10.60;9.57;;;;;;;13.72;83.05;95184.81;4990162;28;20222;-87
2023/05/16 07:51:48;;;;;;;10.67;9.57;;;;;;;13.69;83.57;95198.94;4989974;28;20223;-88
2023/05/16 07:54:15;;;;;;;10.10;9.03;;;;;;;13.57;84.94;95197.22;4989948;28;20716;-88
2023/05/16 07:56:41;;;;;;;34.77;30.63;;;;;;;13.50;85.73;95202.38;4990237;28;20199;-87
2023/05/16 07:59:12;;;;;;;17.90;15.43;;;;;;;13.38;87.84;95211.78;4989471;28;20238;-88
2023/05/16 08:01:38;;;;;;;14.10;12.00;;;;;;;13.31;89.25;95216.16;4989030;28;20232;-87
2023/05/16 08:04:05;;;;;;;12.37;11.17;;;;;;;13.23;89.38;95217.19;4990249;28;20200;-87
2023/05/16 08:06:33;;;;;;;11.80;10.67;;;;;;;13.32;88.66;95215.16;4989698;28;20351;-88
2023/05/16 08:09:00;;;;;;;11.73;10.70;;;;;;;13.38;88.89;95215.16;4989321;28;20269;-88
2023/05/16 08:11:27;;;;;;;12.00;10.80;;;;;;;13.46;89.59;95214.97;4989531;28;20227;-86
2023/05/16 08:14:04;;;;;;;12.20;11.00;;;;;;;13.54;90.09;95216.50;4989393;28;20298;-88
2023/05/16 08:16:31;;;;;;;13.00;11.80;;;;;;;13.52;91.98;95220.28;4989682;28;20222;-87
2023/05/16 08:18:57;;;;;;;11.57;10.47;;;;;;;13.55;90.80;95222.47;4989490;28;20227;-89
2023/05/16 08:21:24;;;;;;;12.90;11.60;;;;;;;13.54;90.62;95224.28;4989198;28;20220;-88
2023/05/16 08:23:55;;;;;;;12.57;11.37;;;;;;;13.52;90.76;95222.88;4989288;28;20238;-88
2023/05/16 08:26:23;;;;;;;11.90;10.80;;;;;;;13.56;89.70;95216.31;4989856;28;20211;-89
2023/05/16 08:28:52;;;;;;;12.13;10.87;;;;;;;13.53;88.81;95227.84;4989338;28;20685;-89
2023/05/16 08:31:18;;;;;;;12.90;11.63;;;;;;;13.56;88.92;95229.25;4989349;28;20203;-89
2023/05/16 08:33:45;;;;;;;12.10;11.00;;;;;;;13.53;89.07;95227.84;4990548;28;20207;-88
2023/05/16 08:36:11;;;;;;;11.63;10.63;;;;;;;13.54;89.75;95224.28;4989951;28;20214;-88
2023/05/16 08:38:42;;;;;;;12.80;11.30;;;;;;;13.54;90.60;95226.84;4989721;28;20230;-89
2023/05/16 08:41:30;;;;;;;19.30;17.37;;;;;;;13.55;90.65;95225.06;4990093;28;20594;-91
2023/05/16 08:44:09;;;;;;;20.33;18.40;;;;;;;13.57;91.13;95221.28;4990848;28;20832;-92
2023/05/16 08:46:47;;;;;;;16.17;14.50;;;;;;;13.61;91.59;95224.25;4990869;28;20221;-90
2023/05/16 08:49:35;;;;;;;13.43;11.43;;;;;;;13.64;91.64;95223.84;4989781;28;20235;-91
2023/05/16 08:52:17;;;;;;;13.23;11.93;;;;;;;13.66;92.76;95225.22;4989374;28;20742;-91
2023/05/16 08:57:53;;;;;;;12.87;11.67;;;;;;;13.66;94.11;95232.22;4972350;28;20811;-92
2023/05/16 09:00:35;;;;;;;12.77;11.47;;;;;;;13.69;92.62;95224.81;4992854;28;20203;-91
2023/05/16 09:03:23;;;;;;;13.03;11.70;;;;;;;13.75;92.47;95226.59;4989282;28;20299;-91
2023/05/16 09:05:56;;;;;;;13.47;12.20;;;;;;;13.82;93.28;95219.63;4989135;28;20607;-90
2023/05/16 09:08:26;;;;;;;13.23;11.93;;;;;;;13.87;93.94;95213.81;4989173;28;20231;-89
2023/05/16 09:10:59;;;;;;;13.57;12.17;;;;;;;13.97;94.32;95221.13;4988783;28;20215;-90
2023/05/16 09:13:40;;;;;;;14.17;12.77;;;;;;;14.08;93.51;95213.50;4988569;28;20234;-89
2023/05/16 09:22:59;;;;;;;12.50;11.30;;;;;;;14.25;91.47;95203.44;4968152;28;20653;-90
2023/05/16 09:25:43;;;;;;;;;;;;;;;;;;;;;
2023/05/16 09:33:57;;;;;;;13.60;12.40;;;;;;;14.08;91.41;95208.31;5011517;23;20230;-90
2023/05/16 09:36:30;;;;;;;14.07;12.73;;;;;;;14.09;93.14;95201.34;5008823;28;20205;-91
2023/05/16 09:39:10;;;;;;;20.15;18.15;;;;;;;14.13;94.62;95207.72;5008744;28;20320;-89
2023/05/16 09:41:39;;;;;;;31.63;28.50;;;;;;;14.14;96.98;95194.56;5007856;28;20972;-89
2023/05/16 09:44:40;;;;;;;16.15;14.55;;;;;;;14.15;99.96;95196.16;5007817;28;20838;-89
2023/05/16 09:47:16;;;;;;;14.98;13.68;;;;;;;14.21;96.85;95206.69;5008576;28;20206;-88
2023/05/16 09:49:47;;;;;;;15.18;13.75;;;;;;;14.24;97.11;95208.88;5008435;28;20226;-89
2023/05/16 09:55:03;;;;;;;15.38;13.93;;;;;;;14.37;95.03;95212.16;4986758;28;20219;-89
2023/05/16 09:57:51;;;;;;;15.57;14.07;;;;;;;14.21;99.20;95202.31;5011502;28;20357;-89
2023/05/16 10:00:29;;;;;;;15.18;13.88;;;;;;;14.18;97.66;95207.91;5008659;28;20715;-89
2023/05/16 10:02:58;;;;;;;14.87;13.47;;;;;;;14.26;96.06;95209.44;5007666;28;20704;-90
2023/05/16 10:05:43;;;;;;;15.43;13.90;;;;;;;14.28;98.88;95215.19;5008122;28;20207;-91
2023/05/16 10:08:15;;;;;;;15.00;13.60;;;;;;;14.32;97.44;95204.22;5008126;28;20199;-89
2023/05/16 10:10:55;;;;;;;;;;;;;;;;;;;;;
2023/05/16 10:13:29;;;;;;;18.55;16.80;;;;;;;14.16;95.74;95208.09;4988112;28;20254;-89
2023/05/16 10:15:59;;;;;;;14.93;13.52;;;;;;;14.20;96.16;95211.06;4988499;28;20210;-89
2023/05/16 10:18:31;;;;;;;14.63;13.25;;;;;;;14.14;97.41;95215.28;5007001;28;20230;-89
2023/05/16 10:21:04;;;;;;;14.27;13.02;;;;;;;14.05;97.73;95215.72;5007777;28;20206;-89
2023/05/16 10:23:38;;;;;;;14.07;12.80;;;;;;;14.04;95.86;95224.50;5007958;28;20253;-88
2023/05/16 10:26:07;;;;;;;13.25;12.15;;;;;;;14.12;95.64;95226.84;5008170;28;20198;-89
2023/05/16 10:28:35;;;;;;;13.70;12.50;;;;;;;14.18;95.66;95219.03;5008345;28;20194;-88
2023/05/16 10:31:02;;;;;;;14.13;12.83;;;;;;;14.18;96.01;95224.22;5010081;28;20214;-90
2023/05/16 10:33:33;;;;;;;14.90;13.67;;;;;;;14.17;97.06;95227.00;5011178;28;20221;-92
2023/05/16 10:36:00;;;;;;;14.88;13.57;;;;;;;14.16;96.96;95241.75;5011150;28;20587;-91
2023/05/16 10:38:33;;;;;;;16.08;14.57;;;;;;;14.15;97.72;95235.00;5010602;28;20241;-90
2023/05/16 10:44:04;;;;;;;14.85;13.45;;;;;;;14.07;97.53;95240.41;4995550;28;20280;-91
2023/05/16 10:46:33;;;;;;;24.87;22.53;;;;;;;14.05;98.71;95234.63;5011574;28;20203;-91
2023/05/16 10:49:23;;;;;;;16.07;14.47;;;;;;;14.04;99.75;95232.28;5010643;28;20195;-91
2023/05/16 10:52:12;;;;;;;18.93;17.23;;;;;;;13.98;100.00;95240.84;5010881;28;20214;-91
2023/05/16 10:54:43;;;;;;;16.60;15.00;;;;;;;13.96;100.00;95246.22;5013309;28;20202;-91
2023/05/16 10:57:14;;;;;;;15.83;14.53;;;;;;;13.98;100.00;95244.22;5004698;28;20201;-88
2023/05/16 11:00:00;;;;;;;16.13;14.73;;;;;;;13.93;100.00;95236.28;5002108;28;20223;-89
2023/05/16 11:02:33;;;;;;;15.83;14.33;;;;;;;13.97;100.00;95234.06;5009366;28;20314;-89
2023/05/16 11:05:08;;;;;;;19.60;15.53;;;;;;;13.90;100.00;95226.34;5010669;28;20246;-89
2023/05/16 11:07:41;;;;;;;16.03;14.57;;;;;;;13.86;100.00;95227.75;5011019;28;20279;-88
2023/05/16 11:10:09;;;;;;;16.93;15.13;;;;;;;13.78;100.00;95227.97;5010443;28;20195;-88
2023/05/16 11:13:00;;;;;;;15.97;14.40;;;;;;;13.71;100.00;95234.97;5010861;28;20215;-88
2023/05/16 11:15:54;;;;;;;15.73;14.32;;;;;;;13.62;100.00;95234.41;5010215;28;20199;-91
2023/05/16 11:18:29;;;;;;;16.30;14.80;;;;;;;13.63;100.00;95235.19;5011277;28;20564;-92
2023/05/16 11:21:13;;;;;;;20.00;16.80;;;;;;;13.51;100.00;95241.97;5011183;28;20206;-90
2023/05/16 11:23:40;;;;;;;17.53;15.80;;;;;;;13.57;100.00;95243.75;5010361;28;20206;-91
2023/05/16 11:26:07;;;;;;;17.07;15.33;;;;;;;13.64;100.00;95252.31;5009901;28;20579;-91
2023/05/16 11:28:37;;;;;;;18.23;16.43;;;;;;;13.50;100.00;95248.94;5010588;28;20298;-91
2023/05/16 11:31:22;;;;;;;16.43;14.93;;;;;;;13.48;100.00;95251.72;5010477;28;20383;-90
2023/05/16 11:33:52;;;;;;;18.43;16.63;;;;;;;13.52;100.00;95244.38;5009946;28;20213;-89
2023/05/16 11:36:36;;;;;;;17.63;16.00;;;;;;;13.60;100.00;95233.81;5010317;28;20199;-90
2023/05/16 11:39:18;;;;;;;16.10;14.57;;;;;;;13.67;100.00;95226.00;5010456;28;20752;-88
2023/05/16 11:41:45;;;;;;;16.50;14.90;;;;;;;13.70;100.00;95215.25;5009735;28;20276;-89
2023/05/16 11:44:22;;;;;;;16.47;14.93;;;;;;;13.68;100.00;95215.47;5009588;28;20213;-91
2023/05/16 11:46:48;;;;;;;17.27;15.60;;;;;;;13.70;100.00;95213.47;5010143;28;20632;-91
2023/05/16 11:49:15;;;;;;;17.87;16.17;;;;;;;13.69;100.00;95214.47;5017935;28;20252;-91
2023/05/16 11:52:07;;;;;;;17.70;16.00;;;;;;;13.73;100.00;95220.81;5023428;28;20218;-91
2023/05/16 11:54:34;;;;;;;19.47;17.47;;;;;;;13.69;100.00;95224.81;5025116;28;20566;-91
2023/05/16 11:57:10;;;;;;;32.77;29.20;;;;;;;13.67;100.00;95226.00;5026725;28;20206;-91
2023/05/16 11:59:38;;;;;;;42.10;37.70;;;;;;;13.77;100.00;95228.97;5009921;28;20234;-91
2023/05/16 12:02:11;;;;;;;23.93;21.53;;;;;;;13.94;100.00;95219.75;5009276;28;20262;-91
2023/05/16 12:05:00;;;;;;;18.48;16.67;;;;;;;14.09;100.00;95217.69;5009819;28;20248;-91
2023/05/16 12:07:52;;;;;;;17.40;15.73;;;;;;;14.15;100.00;95213.47;5010196;28;20206;-91
2023/05/16 12:10:21;;;;;;;16.57;15.07;;;;;;;14.34;100.00;95216.97;4998144;28;20199;-89
2023/05/16 12:12:55;;;;;;;17.70;15.85;;;;;;;14.45;100.00;95219.69;4990031;28;20230;-91
2023/05/16 12:15:35;;;;;;;17.43;15.93;;;;;;;14.55;100.00;95213.28;4989339;28;20226;-89
2023/05/16 12:18:05;;;;;;;17.30;15.68;;;;;;;14.56;100.00;95215.66;5005375;28;20198;-91
2023/05/16 12:21:04;;;;;;;16.13;14.73;;;;;;;14.62;99.75;95212.22;5010216;28;20219;-90
2023/05/16 12:26:26;;;;;;;16.52;15.02;;;;;;;14.82;98.36;95210.25;5009683;28;20612;-91
2023/05/16 12:29:10;;;;;;;17.02;15.48;;;;;;;14.87;100.00;95199.25;5009263;28;20211;-91
2023/05/16 12:31:46;;;;;;;17.20;15.55;;;;;;;14.92;98.90;95209.00;5008769;28;20299;-91